createdAt,value
2018-09-13T00:00:16.599Z,38.90
2018-09-13T00:02:45.732Z,39.30
2018-09-13T00:05:15.885Z,39.10
2018-09-13T00:07:47.759Z,39.10
2018-09-13T00:10:17.060Z,39.60
2018-09-13T00:12:46.061Z,39.60
2018-09-13T00:15:15.244Z,39.70
2018-09-13T00:17:45.229Z,39.50
2018-09-13T00:20:14.201Z,39.60
2018-09-13T00:22:43.215Z,39.80
2018-09-13T00:25:12.523Z,39.50
2018-09-13T00:27:41.589Z,39.40
2018-09-13T00:30:10.653Z,39.30
2018-09-13T00:32:40.095Z,40.00
2018-09-13T00:35:09.285Z,40.10
2018-09-13T00:37:38.507Z,40.20
2018-09-13T00:40:07.855Z,40.40
2018-09-13T00:45:06.056Z,39.80
2018-09-13T00:47:35.790Z,40.50
2018-09-13T00:50:04.785Z,41.10
2018-09-13T00:52:33.798Z,40.50
2018-09-13T00:55:03.127Z,40.80
2018-09-13T00:57:32.337Z,41.10
2018-09-13T01:00:01.343Z,41.00
2018-09-13T01:02:30.773Z,41.10
2018-09-13T01:04:59.891Z,41.00
2018-09-13T01:07:29.091Z,41.50
2018-09-13T01:09:58.328Z,41.90
2018-09-13T01:12:27.314Z,42.40
2018-09-13T01:14:56.337Z,41.90
2018-09-13T01:17:25.656Z,42.40
2018-09-13T01:19:54.824Z,42.40
2018-09-13T01:24:57.462Z,42.30
2018-09-13T01:27:27.665Z,43.70
2018-09-13T01:29:57.506Z,42.70
2018-09-13T01:32:26.843Z,42.80
2018-09-13T01:34:55.983Z,42.90
2018-09-13T01:37:25.190Z,42.90
2018-09-13T01:39:54.750Z,43.20
2018-09-13T01:42:23.836Z,43.30
2018-09-13T01:44:53.058Z,42.30
2018-09-13T01:47:22.688Z,42.80
2018-09-13T01:49:51.803Z,43.20
2018-09-13T01:52:20.997Z,43.10
2018-09-13T01:54:50.016Z,43.50
2018-09-13T01:57:19.030Z,43.70
2018-09-13T01:59:48.233Z,43.40
2018-09-13T02:02:17.479Z,43.30
2018-09-13T02:04:46.461Z,43.20
2018-09-13T02:07:15.484Z,43.40
2018-09-13T02:09:45.814Z,43.60
2018-09-13T02:12:14.826Z,44.00
2018-09-13T02:14:43.921Z,43.90
2018-09-13T02:17:15.947Z,44.10
2018-09-13T02:19:44.945Z,43.90
2018-09-13T02:22:13.937Z,44.00
2018-09-13T02:24:42.977Z,43.70
2018-09-13T02:27:12.026Z,43.80
2018-09-13T02:29:41.138Z,43.80
2018-09-13T02:32:10.238Z,44.10
2018-09-13T02:34:39.390Z,44.10
2018-09-13T02:37:08.532Z,44.10
2018-09-13T02:39:37.548Z,44.80
2018-09-13T02:42:06.747Z,44.10
2018-09-13T02:44:35.966Z,44.00
2018-09-13T02:47:05.651Z,43.90
2018-09-13T02:49:36.577Z,43.80
2018-09-13T02:52:06.828Z,44.00
2018-09-13T02:54:36.005Z,44.00
2018-09-13T02:57:05.337Z,44.10
2018-09-13T02:59:37.715Z,44.10
2018-09-13T03:02:06.904Z,44.40
2018-09-13T03:04:36.118Z,44.30
2018-09-13T03:07:06.367Z,44.30
2018-09-13T03:09:35.589Z,44.30
2018-09-13T03:12:04.703Z,44.40
2018-09-13T03:14:34.708Z,44.40
2018-09-13T03:17:03.734Z,44.60
2018-09-13T03:19:32.701Z,44.60
2018-09-13T03:22:02.007Z,44.80
2018-09-13T03:24:31.551Z,44.90
2018-09-13T03:27:00.697Z,45.10
2018-09-13T03:29:30.015Z,45.10
2018-09-13T03:31:59.242Z,45.10
2018-09-13T03:34:28.441Z,45.20
2018-09-13T03:36:58.325Z,44.80
2018-09-13T03:39:27.383Z,45.20
2018-09-13T03:41:56.502Z,45.60
2018-09-13T03:44:26.159Z,45.50
2018-09-13T03:46:55.748Z,45.60
2018-09-13T03:49:24.713Z,45.70
2018-09-13T03:51:53.804Z,45.10
2018-09-13T03:54:22.915Z,45.50
2018-09-13T03:56:52.102Z,45.70
2018-09-13T03:59:21.648Z,45.50
2018-09-13T04:01:50.732Z,44.60
2018-09-13T04:04:19.813Z,44.50
2018-09-13T04:06:49.542Z,45.10
2018-09-13T04:09:18.603Z,45.20
2018-09-13T04:11:47.797Z,45.50
2018-09-13T04:14:17.037Z,45.50
2018-09-13T04:16:46.138Z,45.50
2018-09-13T04:19:15.142Z,45.40
2018-09-13T04:21:45.643Z,45.90
2018-09-13T04:24:14.613Z,45.30
2018-09-13T04:26:43.696Z,44.90
2018-09-13T04:29:13.328Z,45.40
2018-09-13T04:31:42.550Z,45.20
2018-09-13T04:34:11.658Z,45.50
2018-09-13T04:36:40.586Z,45.50
2018-09-13T04:39:10.141Z,45.20
2018-09-13T04:41:39.095Z,45.10
2018-09-13T04:44:08.570Z,45.30
2018-09-13T04:46:37.629Z,45.00
2018-09-13T04:49:07.171Z,45.30
2018-09-13T04:51:37.817Z,44.60
2018-09-13T04:54:06.911Z,44.10
2018-09-13T04:56:36.125Z,44.60
2018-09-13T04:59:05.661Z,45.60
2018-09-13T05:01:34.814Z,44.60
2018-09-13T05:04:03.983Z,44.20
2018-09-13T05:06:33.424Z,44.40
2018-09-13T05:09:02.707Z,44.00
2018-09-13T05:11:31.816Z,44.50
2018-09-13T05:14:01.566Z,45.00
2018-09-13T05:16:30.536Z,44.70
2018-09-13T05:19:00.075Z,43.20
2018-09-13T05:21:29.118Z,43.80
2018-09-13T05:23:58.277Z,44.10
2018-09-13T05:26:27.461Z,42.90
2018-09-13T05:28:56.537Z,42.50
2018-09-13T05:31:25.547Z,43.10
2018-09-13T05:33:56.356Z,43.20
2018-09-13T05:36:25.409Z,42.80
2018-09-13T05:38:54.524Z,42.80
2018-09-13T05:41:25.429Z,42.30
2018-09-13T05:43:54.578Z,41.50
2018-09-13T05:46:23.602Z,42.10
2018-09-13T05:48:53.998Z,41.80
2018-09-13T05:51:22.956Z,40.00
2018-09-13T05:53:52.162Z,40.60
2018-09-13T05:56:23.196Z,38.90
2018-09-13T05:59:55.236Z,38.50
2018-09-13T06:02:25.172Z,37.80
2018-09-13T06:04:54.229Z,36.60
2018-09-13T06:07:23.441Z,37.20
2018-09-13T06:09:53.790Z,36.60
2018-09-13T06:12:22.793Z,36.20
2018-09-13T06:14:52.016Z,35.00
2018-09-13T06:17:21.805Z,34.40
2018-09-13T06:19:50.995Z,33.30
2018-09-13T06:22:20.186Z,32.50
2018-09-13T06:24:49.103Z,31.50
2018-09-13T06:27:18.002Z,29.90
2018-09-13T06:29:47.973Z,27.80
2018-09-13T06:32:17.157Z,26.10
2018-09-13T06:34:46.244Z,25.00
2018-09-13T06:37:15.254Z,24.60
2018-09-13T06:39:45.470Z,24.80
2018-09-13T06:42:14.638Z,24.80
2018-09-13T06:44:43.623Z,25.00
2018-09-13T06:47:12.557Z,25.80
2018-09-13T06:49:41.646Z,26.10
2018-09-13T06:52:10.763Z,26.20
2018-09-13T06:54:39.990Z,25.70
2018-09-13T06:57:09.084Z,26.20
2018-09-13T06:59:38.176Z,25.60
2018-09-13T07:02:10.856Z,25.60
2018-09-13T07:04:40.103Z,25.40
2018-09-13T07:07:09.274Z,25.00
2018-09-13T07:09:38.653Z,25.80
2018-09-13T07:12:07.821Z,25.90
2018-09-13T07:14:37.020Z,25.90
2018-09-13T07:17:06.384Z,26.10
2018-09-13T07:19:35.595Z,26.80
2018-09-13T07:22:04.606Z,25.70
2018-09-13T07:24:34.631Z,25.80
2018-09-13T07:27:03.754Z,22.80
2018-09-13T07:29:32.980Z,23.20
2018-09-13T07:32:02.097Z,22.80
2018-09-13T07:34:31.289Z,22.70
2018-09-13T07:37:00.313Z,22.20
2018-09-13T07:39:30.697Z,20.40
2018-09-13T07:41:59.795Z,18.60
2018-09-13T07:44:28.905Z,17.80
2018-09-13T07:46:58.310Z,15.40
2018-09-13T07:49:27.525Z,14.20
2018-09-13T07:51:56.610Z,13.60
2018-09-13T07:54:25.776Z,12.60
2018-09-13T07:56:54.851Z,13.20
2018-09-13T07:59:24.086Z,12.20
2018-09-13T08:01:53.951Z,11.60
2018-09-13T08:04:23.113Z,10.90
2018-09-13T08:06:52.425Z,11.20
2018-09-13T08:09:22.438Z,11.30
2018-09-13T08:11:51.704Z,12.00
2018-09-13T08:14:20.892Z,11.20
2018-09-13T08:16:51.478Z,12.40
2018-09-13T08:19:20.645Z,10.80
2018-09-13T08:21:50.569Z,10.70
2018-09-13T08:24:19.949Z,10.10
2018-09-13T08:26:49.054Z,9.80
2018-09-13T08:29:17.992Z,9.90
2018-09-13T08:31:52.032Z,9.30
2018-09-13T08:34:21.049Z,9.20
2018-09-13T08:36:50.308Z,9.00
2018-09-13T08:39:19.745Z,9.90
2018-09-13T08:41:48.794Z,9.60
2018-09-13T08:44:17.906Z,8.90
2018-09-13T08:46:47.689Z,9.30
2018-09-13T08:49:16.757Z,8.20
2018-09-13T08:51:45.722Z,8.00
2018-09-13T08:54:15.083Z,7.80
2018-09-13T08:56:44.205Z,7.60
2018-09-13T08:59:14.150Z,7.60
2018-09-13T09:01:43.682Z,8.10
2018-09-13T09:04:13.148Z,7.90
2018-09-13T09:06:42.177Z,7.50
2018-09-13T09:09:12.454Z,7.70
2018-09-13T09:11:41.786Z,9.00
2018-09-13T09:14:10.750Z,10.00
2018-09-13T09:16:39.944Z,11.20
2018-09-13T09:19:09.055Z,12.40
2018-09-13T09:21:38.092Z,13.40
2018-09-13T09:24:07.294Z,14.10
2018-09-13T09:26:36.393Z,15.50
2018-09-13T09:29:05.592Z,16.60
2018-09-13T09:31:34.950Z,17.00
2018-09-13T09:34:03.954Z,17.40
2018-09-13T09:36:33.081Z,18.20
2018-09-13T09:39:04.420Z,18.70
2018-09-13T09:41:36.819Z,18.60
2018-09-13T09:44:08.608Z,18.90
2018-09-13T09:46:38.073Z,19.60
2018-09-13T09:49:07.047Z,19.70
2018-09-13T09:51:36.788Z,20.00
2018-09-13T09:54:05.773Z,20.00
2018-09-13T09:56:34.996Z,20.70
2018-09-13T09:59:04.713Z,17.30
2018-09-13T10:01:35.059Z,17.80
2018-09-13T10:04:04.347Z,15.30
2018-09-13T10:06:33.613Z,14.20
2018-09-13T10:09:02.568Z,12.20
2018-09-13T10:11:31.812Z,10.80
2018-09-13T10:14:01.139Z,10.60
2018-09-13T10:17:38.059Z,10.50
2018-09-13T10:20:12.378Z,10.80
2018-09-13T10:22:46.495Z,12.30
2018-09-13T10:25:20.883Z,13.50
2018-09-13T10:27:55.237Z,13.50
2018-09-13T10:30:29.238Z,14.40
2018-09-13T10:33:03.475Z,15.50
2018-09-13T10:35:37.673Z,16.00
2018-09-13T10:38:11.782Z,14.90
2018-09-13T10:40:46.027Z,15.30
2018-09-13T10:43:20.256Z,13.80
2018-09-13T10:45:54.622Z,12.80
2018-09-13T10:48:26.406Z,11.50
2018-09-13T10:51:00.591Z,10.40
2018-09-13T10:53:32.919Z,10.20
2018-09-13T10:56:01.914Z,10.10
2018-09-13T10:58:31.007Z,10.20
2018-09-13T11:01:01.408Z,10.70
2018-09-13T11:03:30.378Z,9.80
2018-09-13T11:05:59.385Z,9.20
2018-09-13T11:08:28.762Z,8.10
2018-09-13T11:10:58.180Z,8.20
2018-09-13T11:13:38.835Z,7.90
2018-09-13T11:16:07.926Z,7.00
2018-09-13T11:18:36.923Z,7.60
2018-09-13T11:21:07.042Z,8.20
2018-09-13T11:23:36.195Z,9.30
2018-09-13T11:26:05.393Z,9.80
2018-09-13T11:28:34.761Z,10.20
2018-09-13T11:31:05.008Z,11.20
2018-09-13T11:33:35.364Z,11.50
2018-09-13T11:36:05.129Z,12.20
2018-09-13T11:38:34.233Z,13.00
2018-09-13T11:41:03.742Z,13.70
2018-09-13T11:43:32.640Z,14.60
2018-09-13T11:46:01.783Z,15.10
2018-09-13T11:48:31.413Z,16.20
2018-09-13T11:51:00.530Z,17.20
2018-09-13T11:53:29.634Z,15.90
2018-09-13T11:55:58.779Z,16.40
2018-09-13T11:58:27.961Z,16.80
2018-09-13T12:00:57.226Z,16.60
2018-09-13T12:03:28.775Z,16.20
2018-09-13T12:05:58.606Z,16.60
2018-09-13T12:08:27.582Z,15.80
2018-09-13T12:10:58.381Z,15.90
2018-09-13T12:13:28.278Z,16.60
2018-09-13T12:15:57.593Z,17.10
2018-09-13T12:18:26.833Z,17.70
2018-09-13T12:20:55.821Z,18.00
2018-09-13T12:23:24.927Z,17.70
2018-09-13T12:25:53.966Z,18.20
2018-09-13T12:28:22.950Z,18.80
2018-09-13T12:30:51.944Z,18.60
2018-09-13T12:33:22.833Z,19.00
2018-09-13T12:35:51.899Z,19.60
2018-09-13T12:38:21.021Z,19.50
2018-09-13T12:40:51.644Z,19.50
2018-09-13T12:43:20.582Z,20.00
2018-09-13T12:45:49.774Z,19.70
2018-09-13T12:48:19.185Z,19.90
2018-09-13T12:50:48.158Z,19.40
2018-09-13T12:53:17.218Z,19.80
2018-09-13T12:55:51.801Z,19.10
2018-09-13T12:58:21.003Z,19.80
2018-09-13T13:00:50.267Z,19.30
2018-09-13T13:03:19.709Z,19.60
2018-09-13T13:05:49.872Z,19.70
2018-09-13T13:08:19.199Z,20.10
2018-09-13T13:10:48.430Z,21.00
2018-09-13T13:13:17.419Z,19.80
2018-09-13T13:15:46.512Z,20.50
2018-09-13T13:18:15.777Z,20.30
2018-09-13T13:20:44.963Z,19.90
2018-09-13T13:23:13.983Z,20.90
2018-09-13T13:25:43.127Z,21.40
2018-09-13T13:28:12.065Z,21.70
2018-09-13T13:30:41.221Z,21.20
2018-09-13T13:33:12.310Z,20.60
2018-09-13T13:35:41.368Z,20.60
2018-09-13T13:38:10.378Z,20.70
2018-09-13T13:40:39.646Z,21.20
2018-09-13T13:43:08.598Z,20.80
2018-09-13T13:45:37.717Z,20.70
2018-09-13T13:48:08.677Z,20.70
2018-09-13T13:50:37.803Z,21.20
2018-09-13T13:53:07.012Z,21.40
2018-09-13T13:55:37.753Z,21.30
2018-09-13T13:58:06.855Z,21.70
2018-09-13T14:00:36.041Z,22.00
2018-09-13T14:03:05.126Z,22.20
2018-09-13T14:05:34.358Z,22.50
2018-09-13T14:08:03.422Z,23.00
2018-09-13T14:10:34.090Z,23.00
2018-09-13T14:18:02.417Z,23.20
2018-09-13T14:20:31.707Z,23.30
2018-09-13T14:23:00.666Z,24.00
2018-09-13T14:25:33.299Z,23.60
2018-09-13T14:28:02.366Z,23.40
2018-09-13T14:30:31.483Z,23.20
2018-09-13T14:33:01.108Z,23.40
2018-09-13T14:35:30.260Z,23.10
2018-09-13T14:37:59.422Z,23.50
2018-09-13T14:40:30.537Z,23.70
2018-09-13T14:42:59.620Z,24.10
2018-09-13T14:45:28.615Z,23.70
2018-09-13T14:47:59.769Z,23.80
2018-09-13T14:50:28.685Z,24.10
2018-09-13T14:52:57.789Z,24.80
2018-09-13T14:55:27.059Z,25.20
2018-09-13T14:57:55.965Z,25.60
2018-09-13T15:00:24.997Z,25.90
2018-09-13T15:02:54.362Z,26.20
2018-09-13T15:05:23.570Z,26.60
2018-09-13T15:07:52.688Z,26.40
2018-09-13T15:10:22.608Z,26.70
2018-09-13T15:12:51.765Z,26.60
2018-09-13T15:15:20.717Z,26.60
2018-09-13T15:17:49.711Z,26.80
2018-09-13T15:20:18.770Z,27.20
2018-09-13T15:22:49.136Z,27.30
2018-09-13T15:25:18.935Z,27.30
2018-09-13T15:27:47.989Z,27.30
2018-09-13T15:30:17.077Z,27.80
2018-09-13T15:32:46.050Z,27.10
2018-09-13T15:35:15.767Z,27.10
2018-09-13T15:40:15.312Z,27.90
2018-09-13T15:42:44.116Z,27.70
2018-09-13T15:45:13.496Z,27.60
2018-09-13T15:47:42.565Z,27.10
2018-09-13T15:50:11.742Z,27.50
2018-09-13T15:52:41.921Z,27.50
2018-09-13T15:55:11.138Z,27.60
2018-09-13T15:57:40.060Z,28.00
2018-09-13T16:00:09.813Z,27.40
2018-09-13T16:02:38.953Z,27.50
2018-09-13T16:05:08.109Z,27.40
2018-09-13T16:07:37.970Z,27.50
2018-09-13T16:10:07.466Z,28.00
2018-09-13T16:12:36.633Z,27.70
2018-09-13T16:15:06.215Z,27.70
2018-09-13T16:17:35.045Z,27.70
2018-09-13T16:20:04.072Z,28.00
2018-09-13T16:22:33.794Z,28.00
2018-09-13T16:25:02.554Z,28.50
2018-09-13T16:27:31.367Z,28.30
2018-09-13T16:30:00.617Z,28.40
2018-09-13T16:32:29.702Z,28.90
2018-09-13T16:35:00.187Z,28.90
2018-09-13T16:37:36.710Z,29.10
2018-09-13T16:40:10.897Z,29.20
2018-09-13T16:42:53.382Z,29.20
2018-09-13T16:45:27.130Z,29.30
2018-09-13T16:47:57.763Z,29.70
2018-09-13T16:50:26.613Z,30.00
2018-09-13T16:52:55.416Z,30.60
2018-09-13T16:55:25.114Z,31.20
2018-09-13T16:57:53.937Z,30.80
2018-09-13T17:00:24.381Z,31.30
2018-09-13T17:02:53.801Z,31.70
2018-09-13T17:05:23.979Z,31.50
2018-09-13T17:07:53.717Z,30.40
2018-09-13T17:10:22.507Z,30.80
2018-09-13T17:12:51.514Z,31.10
2018-09-13T17:15:20.617Z,31.70
2018-09-13T17:17:49.429Z,31.10
2018-09-13T17:20:18.717Z,31.40
2018-09-13T17:22:47.574Z,32.10
2018-09-13T17:25:16.384Z,32.70
2018-09-13T17:27:45.157Z,32.40
2018-09-13T17:30:14.965Z,32.40
2018-09-13T17:32:43.742Z,32.40
2018-09-13T17:35:12.536Z,33.30
2018-09-13T17:37:41.357Z,33.10
2018-09-13T17:40:10.167Z,33.90
2018-09-13T17:42:39.136Z,34.50
2018-09-13T17:45:08.563Z,33.90
2018-09-13T17:47:37.764Z,34.10
2018-09-13T17:50:07.749Z,33.80
2018-09-13T17:52:36.841Z,34.40
2018-09-13T17:55:06.129Z,34.70
2018-09-13T17:57:35.251Z,34.40
2018-09-13T18:00:04.398Z,34.90
2018-09-13T18:02:39.502Z,35.20
2018-09-13T18:05:09.055Z,35.50
2018-09-13T18:07:38.151Z,34.60
2018-09-13T18:10:07.263Z,34.70
2018-09-13T18:12:36.794Z,35.40
2018-09-13T18:15:06.034Z,36.00
2018-09-13T18:17:34.974Z,35.80
2018-09-13T18:20:04.134Z,36.40
2018-09-13T18:22:32.906Z,36.40
2018-09-13T18:25:01.732Z,36.40
2018-09-13T18:27:30.558Z,36.80
2018-09-13T18:32:27.765Z,37.20
2018-09-13T18:34:56.619Z,37.40
2018-09-13T18:37:25.459Z,38.60
2018-09-13T18:39:54.276Z,38.20
2018-09-13T18:42:23.753Z,38.50
2018-09-13T18:47:20.943Z,39.10
2018-09-13T18:49:49.775Z,39.10
2018-09-13T18:52:18.579Z,39.20
2018-09-13T18:54:47.402Z,39.30
2018-09-13T18:57:16.537Z,39.90
2018-09-13T18:59:45.713Z,39.50
2018-09-13T19:02:14.524Z,39.70
2018-09-13T19:04:44.580Z,39.90
2018-09-13T19:07:13.779Z,40.20
2018-09-13T19:09:44.107Z,40.30
2018-09-13T19:13:42.832Z,40.40
2018-09-13T19:16:12.424Z,41.00
2018-09-13T19:18:41.527Z,41.20
2018-09-13T19:21:10.980Z,41.20
2018-09-13T19:23:40.023Z,40.90
2018-09-13T19:26:09.135Z,41.30
2018-09-13T19:28:41.867Z,41.30
2018-09-13T19:31:10.970Z,41.20
2018-09-13T19:33:40.191Z,40.80
2018-09-13T19:36:09.614Z,41.30
2018-09-13T19:38:38.917Z,41.40
2018-09-13T19:41:08.030Z,41.50
2018-09-13T19:43:38.637Z,41.50
2018-09-13T19:46:07.701Z,41.30
2018-09-13T19:49:40.954Z,41.20
2018-09-13T19:52:09.991Z,42.00
2018-09-13T19:54:39.103Z,42.10
2018-09-13T19:57:09.129Z,42.20
2018-09-13T19:59:38.089Z,42.20
2018-09-13T20:02:07.371Z,42.50
2018-09-13T20:04:36.730Z,42.50
2018-09-13T20:07:06.858Z,42.50
2018-09-13T20:09:36.047Z,42.50
2018-09-13T20:12:05.031Z,42.60
2018-09-13T20:14:34.257Z,42.50
2018-09-13T20:17:03.299Z,42.70
2018-09-13T20:19:32.422Z,42.50
2018-09-13T20:22:01.401Z,42.50
2018-09-13T20:24:30.572Z,42.50
2018-09-13T20:26:59.865Z,42.50
2018-09-13T20:29:28.874Z,42.40
2018-09-13T20:31:57.943Z,42.60
2018-09-13T20:34:28.463Z,42.80
2018-09-13T20:36:57.597Z,42.70
2018-09-13T20:39:26.712Z,42.70
2018-09-13T20:41:55.877Z,42.70
2018-09-13T20:44:24.879Z,42.60
2018-09-13T20:46:54.254Z,42.60
2018-09-13T20:49:23.370Z,42.60
2018-09-13T20:51:52.387Z,42.50
2018-09-13T20:54:22.594Z,42.50
2018-09-13T20:56:51.949Z,42.50
2018-09-13T20:59:21.043Z,42.40
2018-09-13T21:01:52.005Z,42.50
2018-09-13T21:04:21.032Z,42.60
2018-09-13T21:06:50.058Z,42.80
2018-09-13T21:09:20.096Z,42.50
2018-09-13T21:11:49.173Z,42.50
2018-09-13T21:14:18.292Z,42.50
2018-09-13T21:16:50.659Z,42.20
2018-09-13T21:19:19.792Z,42.20
2018-09-13T21:21:48.887Z,42.30
2018-09-13T21:24:18.165Z,42.50
2018-09-13T21:26:47.039Z,42.50
2018-09-13T21:29:16.134Z,42.20
2018-09-13T21:31:45.285Z,42.50
2018-09-13T21:34:14.354Z,42.40
2018-09-13T21:36:43.450Z,43.00
2018-09-13T21:39:12.672Z,42.60
2018-09-13T21:41:42.011Z,42.60
2018-09-13T21:44:11.038Z,42.40
2018-09-13T21:46:40.493Z,42.30
2018-09-13T21:49:09.441Z,42.10
2018-09-13T21:51:38.480Z,42.70
2018-09-13T21:54:07.613Z,42.80
2018-09-13T21:56:36.774Z,43.10
2018-09-13T21:59:06.132Z,43.00
2018-09-13T22:01:35.208Z,42.70
2018-09-13T22:04:04.227Z,43.00
2018-09-13T22:06:33.250Z,42.90
2018-09-13T22:09:02.546Z,42.60
2018-09-13T22:11:31.558Z,42.50
2018-09-13T22:14:00.501Z,42.60
2018-09-13T22:16:29.545Z,42.70
2018-09-13T22:18:58.595Z,43.00
2018-09-13T22:21:27.830Z,43.20
2018-09-13T22:23:56.853Z,43.40
2018-09-13T22:26:26.030Z,43.40
2018-09-13T22:28:55.909Z,43.40
2018-09-13T22:31:25.118Z,43.40
2018-09-13T22:33:54.163Z,43.40
2018-09-13T22:36:23.331Z,43.40
2018-09-13T22:38:52.834Z,43.40
2018-09-13T22:41:21.850Z,43.40
2018-09-13T22:43:51.415Z,43.70
2018-09-13T22:46:22.124Z,43.50
2018-09-13T22:48:51.430Z,44.10
2018-09-13T22:51:20.857Z,43.90
2018-09-13T22:53:50.337Z,43.20
2018-09-13T22:56:19.379Z,43.70
2018-09-13T22:58:48.293Z,43.50
2018-09-13T23:01:17.427Z,43.80
2018-09-13T23:03:46.541Z,44.00
2018-09-13T23:06:15.748Z,43.90
2018-09-13T23:08:45.531Z,44.10
2018-09-13T23:11:14.891Z,44.20
2018-09-13T23:13:44.101Z,44.30
2018-09-13T23:16:13.443Z,44.60
2018-09-13T23:18:42.542Z,44.70
2018-09-13T23:21:11.643Z,44.80
2018-09-13T23:23:41.302Z,44.90
2018-09-13T23:26:10.495Z,45.20
2018-09-13T23:28:39.687Z,45.30
2018-09-13T23:31:10.959Z,45.60
2018-09-13T23:33:40.058Z,45.60
2018-09-13T23:36:09.165Z,45.60
2018-09-13T23:38:41.711Z,45.40
2018-09-13T23:41:10.697Z,45.30
2018-09-13T23:43:39.686Z,45.20
2018-09-13T23:46:08.764Z,45.20
2018-09-13T23:48:38.134Z,45.20
2018-09-13T23:51:07.335Z,44.80
2018-09-13T23:53:38.094Z,44.70
2018-09-13T23:56:07.213Z,44.70
2018-09-13T23:58:36.411Z,44.60
